LOWILSZA

Guest
Details From LOWI - Innsbruck Kranebitten
To LSZA - Lugano
Flight Number -
Tags generated
Created
Modified
Stats Distance 126 nm / 233 km
Max Altitude 8,000 ft / 2,438 m
Waypoints 3
Social Downloads 1
Likes 0
Share VATSIM

Download

Looking for another format? Having issues loading an existing format? Contact us
Advertisement - Login to hide

Notes

Basic altitude profile: - Ascent Rate: 2500ft/min - Ascent Speed: 250kts - Cruise Altitude: 180ft - Cruise Speed: 300kts - Descent Rate: 1500ft/min - Descent Speed: 250kts Options: - Use NATs: yes - Use PACOTS: yes - Use low airways: yes - Use high airways: yes

Route

LOWI OTSIS LSZA

ID Type Via Altitude Latitude Longitude Leg Dist Tot Dist Heading (true) Name
O LOWI APT - 0 ft / 0 m 47.26023˚ 11.34397˚ - 0 nm - Innsbruck Kranebitten
OTSIS FIX - 8,000 ft / 2,438 m 47.10074˚ 10.84546˚ 22 nm 22 nm 245° / 245° -
O LSZA APT - 0 ft / 0 m 46.00428˚ 8.91058˚ 103 nm 126 nm 231° / 230° Lugano

Altitude Profile

Advertisement - Login to hide

LOWI

Details ICAO LOWI (INN)
Name Innsbruck Kranebitten
Region Austria
Timezone Europe/Vienna (UTC+2.0)
Stats Elevation 1,905 ft / 581 m (AMSL)
Location 47.260196° 11.343972°
Runways 1
Magnetic Variation 3.099° E

METAR

LOWI 151820Z VRB02KT 9999 FEW060 SCT080 20/13 Q1020 NOSIG

Decode

TAF

TAF TAF LOWI 151715Z 1518/1618 09009KT 9999 FEW060 SCT100 TX27/1614Z TN14/1604Z BECMG 1518/1520 VRB02KT CAVOK TEMPO 1610/1612 09007KT FEW070

Decode

Departure Runways

ID Width Length Bearing (true/mag) Surface Threshold Overrun Markings Lighting
08 148 ft / 45 m 6,544 ft / 1,995 m 80.93° / 77.83° ASPHALT 338 ft / 103 m 0 ft / 0 m PREC-APP CENTERLINE REIL-OMNI
26 148 ft / 45 m 6,544 ft / 1,995 m 260.95° / 257.85° ASPHALT 0 ft / 0 m 0 ft / 0 m PREC-APP CENTERLINE MALS REIL-OMNI

LSZA

Details ICAO LSZA (LUG)
Name Lugano
Region Switzerland
Timezone Europe/Zurich (UTC+2.0)
Stats Elevation 915 ft / 279 m (AMSL)
Location 46.004262° 8.910576°
Runways 1
Magnetic Variation 2.503° E

METAR

LSZA 151820Z VRB01KT 9999 FEW050 24/17 Q1016 NOSIG

Decode

TAF

Not found

Destination Runways

ID Width Length Bearing (true/mag) Surface Threshold Overrun Markings Lighting
01 98 ft / 30 m 4,415 ft / 1,346 m 18.79° / 16.29° CONCRETE 358 ft / 109 m 16 ft / 5 m PREC-APP CENTERLINE EDGE THRESHOLD SALS REIL-UNI
19 98 ft / 30 m 4,415 ft / 1,346 m 198.79° / 196.29° CONCRETE 673 ft / 205 m 0 ft / 0 m APP CENTERLINE EDGE THRESHOLD SALS REIL-UNI

Approach Navaids

Runway Type Ident Frequency Range Bearing (true/mag) Slope Elevation
01 DME ILU 111.50 MHz 18 nm / 33 km - - 928 ft / 283 m (AMSL)
01 LOC-ILS ILU 111.50 MHz 18 nm / 33 km 18.79° / 16.29 ° - 928 ft / 283 m (AMSL)
01 GS ILU 111.50 MHz 10 nm / 19 km 20.98° / 18.48 ° 6.00° 928 ft / 283 m (AMSL)

Popular Alternatives